createdAt,value
2023-06-29T00:00:10.091Z,18.83
2023-06-29T00:02:36.968Z,18.79
2023-06-29T00:05:03.963Z,18.75
2023-06-29T00:07:34.368Z,18.71
2023-06-29T00:10:01.956Z,18.67
2023-06-29T00:12:29.012Z,18.62
2023-06-29T00:14:55.845Z,18.57
2023-06-29T00:17:23.414Z,18.55
2023-06-29T00:19:50.360Z,18.53
2023-06-29T00:22:18.820Z,18.49
2023-06-29T00:24:46.034Z,18.42
2023-06-29T00:27:13.858Z,18.40
2023-06-29T00:29:42.579Z,18.36
2023-06-29T00:32:11.133Z,18.30
2023-06-29T00:34:38.635Z,18.26
2023-06-29T00:37:05.969Z,18.23
2023-06-29T00:39:33.533Z,18.18
2023-06-29T00:42:00.385Z,18.14
2023-06-29T00:44:27.194Z,18.13
2023-06-29T00:46:55.099Z,18.11
2023-06-29T00:49:22.649Z,18.06
2023-06-29T00:51:51.588Z,18.01
2023-06-29T00:54:18.872Z,17.95
2023-06-29T00:56:47.236Z,17.94
2023-06-29T00:59:14.716Z,17.89
2023-06-29T01:01:42.763Z,17.86
2023-06-29T01:04:11.089Z,17.83
2023-06-29T01:06:55.571Z,17.78
2023-06-29T01:09:22.601Z,17.76
2023-06-29T01:11:52.171Z,17.67
2023-06-29T01:14:22.125Z,17.66
2023-06-29T01:16:51.126Z,17.62
2023-06-29T01:19:23.130Z,17.60
2023-06-29T01:21:56.067Z,17.56
2023-06-29T01:24:27.557Z,17.52
2023-06-29T01:26:54.492Z,17.47
2023-06-29T01:29:26.075Z,17.46
2023-06-29T01:32:01.359Z,17.43
2023-06-29T01:34:32.850Z,17.37
2023-06-29T01:37:05.898Z,17.34
2023-06-29T01:39:56.962Z,17.31
2023-06-29T01:42:25.902Z,17.28
2023-06-29T01:44:55.333Z,17.25
2023-06-29T01:47:23.279Z,17.22
2023-06-29T01:49:50.650Z,17.16
2023-06-29T01:52:17.840Z,17.14
2023-06-29T01:54:44.614Z,17.13
2023-06-29T01:57:11.927Z,17.09
2023-06-29T01:59:38.786Z,17.02
2023-06-29T02:02:06.328Z,16.99
2023-06-29T02:04:34.131Z,16.97
2023-06-29T02:07:01.785Z,16.94
2023-06-29T02:09:28.849Z,16.91
2023-06-29T02:11:55.770Z,16.86
2023-06-29T02:14:22.688Z,16.82
2023-06-29T02:16:50.465Z,16.82
2023-06-29T02:19:17.269Z,16.78
2023-06-29T02:21:44.053Z,16.73
2023-06-29T02:24:10.863Z,16.70
2023-06-29T02:26:37.735Z,16.69
2023-06-29T02:29:04.643Z,16.66
2023-06-29T02:31:31.499Z,16.62
2023-06-29T02:33:58.409Z,16.60
2023-06-29T02:36:25.351Z,16.58
2023-06-29T02:38:52.214Z,16.52
2023-06-29T02:41:19.034Z,16.50
2023-06-29T02:43:45.824Z,16.48
2023-06-29T02:46:12.669Z,16.45
2023-06-29T02:48:39.588Z,16.43
2023-06-29T02:51:06.722Z,16.42
2023-06-29T02:53:33.565Z,16.39
2023-06-29T02:56:00.351Z,16.35
2023-06-29T02:58:27.215Z,16.29
2023-06-29T03:00:54.141Z,16.27
2023-06-29T03:03:21.602Z,16.24
2023-06-29T03:05:48.543Z,16.24
2023-06-29T03:08:15.441Z,16.20
2023-06-29T03:10:42.275Z,16.18
2023-06-29T03:13:09.070Z,16.16
2023-06-29T03:15:35.920Z,16.15
2023-06-29T03:18:02.798Z,16.11
2023-06-29T03:20:29.680Z,16.06
2023-06-29T03:22:56.513Z,16.03
2023-06-29T03:25:23.331Z,16.02
2023-06-29T03:27:50.223Z,16.02
2023-06-29T03:30:17.105Z,16.01
2023-06-29T03:32:43.993Z,15.99
2023-06-29T03:35:10.867Z,15.96
2023-06-29T03:37:37.655Z,15.96
2023-06-29T03:40:04.821Z,15.97
2023-06-29T03:42:31.650Z,15.97
2023-06-29T03:44:58.491Z,15.96
2023-06-29T03:47:25.549Z,15.98
2023-06-29T03:49:52.460Z,15.98
2023-06-29T03:52:19.258Z,16.00
2023-06-29T03:54:46.045Z,16.03
2023-06-29T03:57:12.850Z,16.04
2023-06-29T03:59:40.269Z,16.07
2023-06-29T04:02:07.355Z,16.11
2023-06-29T04:04:34.214Z,16.13
2023-06-29T04:07:00.996Z,16.16
2023-06-29T04:09:27.863Z,16.19
2023-06-29T04:11:54.714Z,16.23
2023-06-29T04:14:21.516Z,16.26
2023-06-29T04:16:48.354Z,16.30
2023-06-29T04:19:17.069Z,16.35
2023-06-29T04:21:44.013Z,16.41
2023-06-29T04:24:10.812Z,16.44
2023-06-29T04:26:39.892Z,16.49
2023-06-29T04:29:09.920Z,16.51
2023-06-29T04:31:36.842Z,16.56
2023-06-29T04:34:04.054Z,16.61
2023-06-29T04:36:31.300Z,16.65
2023-06-29T04:38:58.224Z,16.70
2023-06-29T04:41:32.362Z,16.76
2023-06-29T04:44:03.152Z,16.80
2023-06-29T04:46:30.058Z,16.86
2023-06-29T04:48:57.004Z,16.93
2023-06-29T04:51:23.948Z,16.98
2023-06-29T04:53:50.777Z,17.04
2023-06-29T04:56:17.554Z,17.10
2023-06-29T04:58:44.365Z,17.17
2023-06-29T05:01:11.293Z,17.23
2023-06-29T05:03:38.121Z,17.30
2023-06-29T05:06:04.965Z,17.35
2023-06-29T05:08:31.923Z,17.42
2023-06-29T05:10:58.818Z,17.49
2023-06-29T05:13:25.660Z,17.56
2023-06-29T05:15:52.965Z,17.62
2023-06-29T05:18:19.953Z,17.69
2023-06-29T05:20:46.995Z,17.77
2023-06-29T05:23:13.894Z,17.84
2023-06-29T05:25:42.223Z,17.90
2023-06-29T05:28:09.697Z,17.97
2023-06-29T05:30:36.593Z,18.05
2023-06-29T05:33:05.221Z,18.14
2023-06-29T05:35:32.905Z,18.22
2023-06-29T05:37:59.770Z,18.29
2023-06-29T05:40:26.530Z,18.37
2023-06-29T05:42:53.822Z,18.44
2023-06-29T05:45:20.695Z,18.53
2023-06-29T05:47:47.663Z,18.61
2023-06-29T05:50:14.603Z,18.69
2023-06-29T05:52:41.432Z,18.76
2023-06-29T05:55:08.651Z,18.84
2023-06-29T05:57:35.527Z,18.92
2023-06-29T06:00:06.532Z,19.00
2023-06-29T06:02:33.337Z,19.08
2023-06-29T06:05:00.284Z,19.15
2023-06-29T06:07:29.074Z,19.23
2023-06-29T06:09:57.220Z,19.30
2023-06-29T06:12:24.344Z,19.38
2023-06-29T06:14:51.262Z,19.45
2023-06-29T06:17:18.281Z,19.53
2023-06-29T06:19:45.314Z,19.60
2023-06-29T06:22:12.108Z,19.68
2023-06-29T06:24:38.918Z,19.75
2023-06-29T06:27:06.036Z,19.83
2023-06-29T06:29:32.831Z,19.89
2023-06-29T06:31:59.795Z,19.96
2023-06-29T06:34:31.966Z,20.04
2023-06-29T06:36:59.690Z,20.11
2023-06-29T06:39:26.600Z,20.17
2023-06-29T06:41:53.433Z,20.24
2023-06-29T06:44:20.961Z,20.31
2023-06-29T06:46:47.915Z,20.38
2023-06-29T06:49:15.349Z,20.42
2023-06-29T06:51:42.265Z,20.49
2023-06-29T06:54:09.475Z,20.56
2023-06-29T06:56:38.583Z,20.64
2023-06-29T06:59:06.043Z,20.72
2023-06-29T07:01:33.187Z,20.78
2023-06-29T07:04:00.129Z,20.86
2023-06-29T07:06:32.064Z,20.94
2023-06-29T07:09:00.456Z,21.02
2023-06-29T07:11:28.308Z,21.10
2023-06-29T07:13:55.134Z,21.19
2023-06-29T07:16:22.664Z,21.25
2023-06-29T07:21:39.185Z,21.37
2023-06-29T07:24:08.156Z,21.45
2023-06-29T07:26:36.616Z,21.52
2023-06-29T07:29:05.970Z,21.59
2023-06-29T07:31:33.011Z,21.67
2023-06-29T07:33:59.985Z,21.75
2023-06-29T07:36:28.029Z,21.84
2023-06-29T07:38:56.325Z,21.91
2023-06-29T07:41:23.691Z,21.99
2023-06-29T07:43:57.769Z,22.06
2023-06-29T07:46:24.861Z,22.14
2023-06-29T07:48:52.907Z,22.21
2023-06-29T07:51:19.981Z,22.28
2023-06-29T07:53:46.873Z,22.36
2023-06-29T07:56:13.688Z,22.44
2023-06-29T07:58:40.680Z,22.53
2023-06-29T08:01:07.731Z,22.60
2023-06-29T08:03:43.949Z,22.67
2023-06-29T08:08:48.380Z,22.83
2023-06-29T08:11:15.647Z,22.90
2023-06-29T08:13:42.553Z,22.96
2023-06-29T08:16:09.513Z,23.02
2023-06-29T08:18:36.396Z,23.09
2023-06-29T08:21:03.370Z,23.16
2023-06-29T08:23:33.491Z,23.24
2023-06-29T08:26:00.334Z,23.33
2023-06-29T08:28:27.226Z,23.41
2023-06-29T08:30:54.094Z,23.50
2023-06-29T08:33:21.533Z,23.57
2023-06-29T08:35:48.539Z,23.66
2023-06-29T08:38:15.339Z,23.73
2023-06-29T08:40:46.532Z,23.80
2023-06-29T08:43:16.733Z,23.91
2023-06-29T08:45:44.078Z,23.99
2023-06-29T08:48:14.254Z,24.08
2023-06-29T08:51:07.808Z,24.18
2023-06-29T08:53:35.428Z,24.27
2023-06-29T08:56:03.139Z,24.38
2023-06-29T08:58:30.498Z,24.47
2023-06-29T09:00:58.665Z,24.57
2023-06-29T09:03:27.670Z,24.68
2023-06-29T09:05:57.076Z,24.75
2023-06-29T09:08:27.701Z,24.82
2023-06-29T09:10:56.562Z,24.90
2023-06-29T09:13:27.414Z,24.99
2023-06-29T09:15:55.721Z,25.07
2023-06-29T09:18:28.205Z,25.14
2023-06-29T09:20:57.413Z,25.23
2023-06-29T09:23:26.997Z,25.31
2023-06-29T09:25:56.612Z,25.41
2023-06-29T09:28:23.960Z,25.50
2023-06-29T09:30:51.081Z,25.61
2023-06-29T09:33:18.201Z,25.69
2023-06-29T09:35:48.389Z,25.78
2023-06-29T09:38:19.377Z,25.87
2023-06-29T09:40:50.889Z,25.96
2023-06-29T09:43:19.758Z,26.06
2023-06-29T09:45:46.700Z,26.16
2023-06-29T09:50:52.834Z,26.34
2023-06-29T09:53:29.549Z,26.43
2023-06-29T09:55:58.891Z,26.54
2023-06-29T09:58:31.316Z,26.65
2023-06-29T10:01:01.620Z,26.74
2023-06-29T10:03:29.386Z,26.81
2023-06-29T10:06:00.592Z,26.88
2023-06-29T10:08:30.006Z,26.96
2023-06-29T10:11:03.389Z,27.04
2023-06-29T10:13:34.409Z,27.09
2023-06-29T10:16:04.029Z,27.18
2023-06-29T10:18:35.874Z,27.23
2023-06-29T10:21:02.988Z,27.30
2023-06-29T10:23:31.491Z,27.37
2023-06-29T10:26:00.179Z,27.45
2023-06-29T10:28:27.274Z,27.55
2023-06-29T10:30:59.553Z,27.62
2023-06-29T10:33:27.754Z,27.73
2023-06-29T10:35:59.384Z,27.82
2023-06-29T10:38:34.043Z,27.90
2023-06-29T10:41:01.702Z,27.97
2023-06-29T10:43:29.115Z,28.07
2023-06-29T10:45:55.908Z,28.18
2023-06-29T10:48:42.983Z,28.27
2023-06-29T10:51:10.083Z,28.33
2023-06-29T10:53:36.957Z,28.42
2023-06-29T10:56:03.893Z,28.51
2023-06-29T10:58:38.700Z,28.57
2023-06-29T11:01:05.768Z,28.65
2023-06-29T11:03:32.889Z,28.73
2023-06-29T11:06:03.102Z,28.84
2023-06-29T11:08:32.461Z,28.92
2023-06-29T11:11:14.481Z,28.97
2023-06-29T11:13:42.182Z,29.06
2023-06-29T11:16:09.112Z,29.14
2023-06-29T11:18:35.927Z,29.23
2023-06-29T11:21:03.304Z,29.30
2023-06-29T11:23:30.144Z,29.38
2023-06-29T11:26:01.315Z,29.46
2023-06-29T11:28:31.928Z,29.55
2023-06-29T11:30:59.156Z,29.64
2023-06-29T11:36:12.823Z,29.83
2023-06-29T11:38:39.772Z,29.95
2023-06-29T11:41:07.291Z,30.02
2023-06-29T11:43:34.758Z,30.09
2023-06-29T11:46:02.426Z,30.18
2023-06-29T11:48:31.017Z,30.27
2023-06-29T11:51:01.843Z,30.32
2023-06-29T11:53:29.578Z,30.40
2023-06-29T11:55:57.176Z,30.49
2023-06-29T11:58:24.129Z,30.57
2023-06-29T12:00:59.064Z,30.65
2023-06-29T12:03:27.944Z,30.71
2023-06-29T12:05:59.913Z,30.75
2023-06-29T12:08:26.892Z,30.76
2023-06-29T12:10:53.972Z,30.72
2023-06-29T12:13:22.028Z,30.69
2023-06-29T12:18:18.835Z,30.67
2023-06-29T12:20:48.644Z,30.65
2023-06-29T12:23:16.108Z,30.67
2023-06-29T12:25:48.507Z,30.71
2023-06-29T12:28:15.979Z,30.77
2023-06-29T12:30:43.578Z,30.87
2023-06-29T12:33:11.944Z,30.95
2023-06-29T12:35:39.197Z,31.03
2023-06-29T12:38:07.003Z,31.10
2023-06-29T12:40:34.843Z,31.18
2023-06-29T12:43:02.156Z,31.27
2023-06-29T12:45:29.448Z,31.33
2023-06-29T12:47:56.551Z,31.42
2023-06-29T12:50:23.715Z,31.52
2023-06-29T12:52:50.665Z,31.63
2023-06-29T12:55:17.501Z,31.74
2023-06-29T12:57:45.425Z,31.85
2023-06-29T13:00:13.888Z,31.97
2023-06-29T13:02:41.731Z,32.08
2023-06-29T13:05:09.424Z,32.16
2023-06-29T13:07:37.188Z,32.24
2023-06-29T13:10:04.994Z,32.31
2023-06-29T13:12:32.014Z,32.40
2023-06-29T13:15:01.662Z,32.49
2023-06-29T13:17:28.552Z,32.51
2023-06-29T13:19:55.404Z,32.47
2023-06-29T13:22:24.195Z,32.44
2023-06-29T13:24:51.181Z,32.42
2023-06-29T13:27:18.233Z,32.43
2023-06-29T13:29:45.028Z,32.46
2023-06-29T13:32:11.830Z,32.52
2023-06-29T13:34:38.757Z,32.57
2023-06-29T13:37:05.940Z,32.62
2023-06-29T13:39:32.906Z,32.69
2023-06-29T13:41:59.820Z,32.73
2023-06-29T13:44:26.624Z,32.78
2023-06-29T13:46:53.477Z,32.82
2023-06-29T13:49:21.188Z,32.88
2023-06-29T13:51:49.536Z,32.92
2023-06-29T13:54:16.998Z,32.97
2023-06-29T13:56:44.618Z,33.02
2023-06-29T13:59:11.906Z,33.06
2023-06-29T14:01:41.485Z,33.11
2023-06-29T14:04:10.716Z,33.16
2023-06-29T14:06:43.186Z,33.20
2023-06-29T14:09:11.181Z,33.25
2023-06-29T14:11:38.255Z,33.28
2023-06-29T14:14:05.817Z,33.34
2023-06-29T14:16:33.303Z,33.38
2023-06-29T14:19:01.222Z,33.42
2023-06-29T14:21:28.418Z,33.44
2023-06-29T14:23:55.685Z,33.47
2023-06-29T14:26:23.178Z,33.48
2023-06-29T14:28:50.108Z,33.52
2023-06-29T14:31:18.554Z,33.60
2023-06-29T14:33:46.183Z,33.63
2023-06-29T14:36:13.778Z,33.69
2023-06-29T14:38:40.684Z,33.70
2023-06-29T14:41:07.542Z,33.73
2023-06-29T14:43:34.475Z,33.75
2023-06-29T14:46:01.410Z,33.77
2023-06-29T14:48:28.507Z,33.77
2023-06-29T14:50:55.473Z,33.77
2023-06-29T14:53:23.714Z,33.80
2023-06-29T14:55:51.407Z,33.80
2023-06-29T14:58:18.381Z,33.80
2023-06-29T15:00:46.000Z,33.81
2023-06-29T15:03:13.224Z,33.82
2023-06-29T15:05:40.433Z,33.83
2023-06-29T15:08:07.328Z,33.83
2023-06-29T15:10:34.276Z,33.85
2023-06-29T15:13:01.180Z,33.88
2023-06-29T15:15:28.201Z,33.90
2023-06-29T15:17:55.461Z,33.93
2023-06-29T15:20:22.455Z,33.93
2023-06-29T15:22:49.666Z,33.93
2023-06-29T15:25:17.103Z,33.95
2023-06-29T15:27:44.353Z,33.95
2023-06-29T15:30:11.571Z,33.95
2023-06-29T15:32:38.494Z,33.96
2023-06-29T15:35:05.778Z,33.97
2023-06-29T15:37:34.108Z,33.99
2023-06-29T15:40:01.202Z,34.00
2023-06-29T15:42:29.644Z,33.99
2023-06-29T15:44:56.783Z,33.96
2023-06-29T15:47:23.874Z,33.96
2023-06-29T15:49:50.787Z,33.95
2023-06-29T15:52:17.904Z,33.95
2023-06-29T15:54:44.935Z,33.95
2023-06-29T15:57:12.462Z,33.95
2023-06-29T15:59:39.428Z,33.94
2023-06-29T16:02:07.215Z,33.94
2023-06-29T16:04:34.046Z,33.93
2023-06-29T16:07:00.969Z,33.92
2023-06-29T16:09:30.986Z,33.90
2023-06-29T16:11:57.803Z,33.90
2023-06-29T16:14:24.615Z,33.91
2023-06-29T16:16:51.701Z,33.90
2023-06-29T16:19:18.939Z,33.90
2023-06-29T16:21:46.733Z,33.89
2023-06-29T16:24:13.836Z,33.86
2023-06-29T16:26:40.790Z,33.85
2023-06-29T16:29:07.583Z,33.85
2023-06-29T16:31:35.048Z,33.82
2023-06-29T16:34:02.015Z,33.80
2023-06-29T16:36:28.920Z,33.80
2023-06-29T16:38:55.771Z,33.76
2023-06-29T16:41:22.749Z,33.74
2023-06-29T16:43:50.596Z,33.70
2023-06-29T16:46:17.554Z,33.65
2023-06-29T16:48:57.822Z,33.59
2023-06-29T16:51:26.257Z,33.55
2023-06-29T16:53:53.217Z,33.53
2023-06-29T16:56:20.106Z,33.48
2023-06-29T16:58:47.553Z,33.46
2023-06-29T17:01:14.529Z,33.44
2023-06-29T17:03:41.583Z,33.42
2023-06-29T17:06:08.622Z,33.40
2023-06-29T17:08:35.542Z,33.36
2023-06-29T17:11:02.532Z,33.31
2023-06-29T17:13:29.381Z,33.27
2023-06-29T17:15:56.550Z,33.21
2023-06-29T17:18:23.572Z,33.18
2023-06-29T17:20:50.652Z,33.12
2023-06-29T17:23:18.982Z,33.08
2023-06-29T17:25:50.625Z,33.03
2023-06-29T17:28:19.210Z,32.98
2023-06-29T17:30:46.630Z,32.94
2023-06-29T17:33:15.225Z,32.91
2023-06-29T17:35:42.212Z,32.86
2023-06-29T17:38:10.009Z,32.81
2023-06-29T17:40:37.005Z,32.76
2023-06-29T17:43:03.992Z,32.72
2023-06-29T17:45:31.022Z,32.66
2023-06-29T17:47:58.519Z,32.62
2023-06-29T17:50:25.363Z,32.56
2023-06-29T17:52:52.482Z,32.51
2023-06-29T17:55:19.610Z,32.46
2023-06-29T17:57:46.853Z,32.41
2023-06-29T18:00:16.448Z,32.34
2023-06-29T18:02:44.038Z,32.29
2023-06-29T18:05:11.364Z,32.24
2023-06-29T18:07:39.387Z,32.18
2023-06-29T18:10:08.588Z,32.11
2023-06-29T18:12:38.104Z,32.04
2023-06-29T18:15:07.596Z,31.95
2023-06-29T18:17:35.768Z,31.89
2023-06-29T18:20:03.482Z,31.81
2023-06-29T18:22:35.338Z,31.72
2023-06-29T18:25:02.563Z,31.62
2023-06-29T18:27:30.579Z,31.53
2023-06-29T18:29:57.654Z,31.42
2023-06-29T18:32:24.902Z,31.33
2023-06-29T18:34:52.285Z,31.22
2023-06-29T18:37:20.074Z,31.11
2023-06-29T18:39:47.475Z,31.01
2023-06-29T18:42:18.165Z,30.91
2023-06-29T18:44:45.542Z,30.78
2023-06-29T18:47:14.976Z,30.69
2023-06-29T18:49:51.417Z,30.59
2023-06-29T18:52:21.413Z,30.48
2023-06-29T18:54:48.941Z,30.38
2023-06-29T18:57:16.348Z,30.23
2023-06-29T18:59:44.039Z,30.15
2023-06-29T19:02:11.088Z,30.05
2023-06-29T19:04:38.156Z,29.93
2023-06-29T19:07:05.326Z,29.82
2023-06-29T19:09:32.914Z,29.69
2023-06-29T19:12:03.435Z,29.56
2023-06-29T19:14:30.438Z,29.45
2023-06-29T19:16:57.817Z,29.33
2023-06-29T19:19:26.109Z,29.23
2023-06-29T19:21:54.159Z,29.10
2023-06-29T19:24:21.706Z,28.99
2023-06-29T19:26:48.672Z,28.90
2023-06-29T19:29:15.564Z,28.82
2023-06-29T19:31:44.856Z,28.75
2023-06-29T19:34:12.989Z,28.67
2023-06-29T19:36:40.153Z,28.56
2023-06-29T19:39:07.304Z,28.47
2023-06-29T19:41:34.569Z,28.38
2023-06-29T19:44:01.830Z,28.29
2023-06-29T19:46:29.065Z,28.22
2023-06-29T19:48:56.299Z,28.13
2023-06-29T19:51:23.587Z,28.05
2023-06-29T19:53:50.409Z,27.94
2023-06-29T19:56:17.302Z,27.87
2023-06-29T19:58:44.632Z,27.77
2023-06-29T20:01:12.052Z,27.69
2023-06-29T20:03:40.035Z,27.64
2023-06-29T20:06:09.918Z,27.54
2023-06-29T20:08:37.735Z,27.52
2023-06-29T20:11:05.086Z,27.42
2023-06-29T20:13:32.603Z,27.35
2023-06-29T20:16:00.288Z,27.29
2023-06-29T20:18:27.489Z,27.20
2023-06-29T20:20:54.844Z,27.11
2023-06-29T20:23:22.632Z,27.08
2023-06-29T20:25:50.236Z,27.01
2023-06-29T20:28:17.984Z,26.96
2023-06-29T20:30:45.535Z,26.89
2023-06-29T20:33:13.168Z,26.81
2023-06-29T20:35:40.275Z,26.75
2023-06-29T20:38:07.778Z,26.70
2023-06-29T20:40:34.934Z,26.63
2023-06-29T20:43:02.061Z,26.57
2023-06-29T20:45:29.918Z,26.50
2023-06-29T20:47:57.888Z,26.45
2023-06-29T20:50:24.943Z,26.38
2023-06-29T20:52:52.911Z,26.32
2023-06-29T20:55:20.207Z,26.30
2023-06-29T20:57:47.371Z,26.22
2023-06-29T21:00:14.871Z,26.15
2023-06-29T21:02:42.039Z,26.12
2023-06-29T21:05:10.050Z,26.03
2023-06-29T21:07:37.194Z,25.98
2023-06-29T21:10:04.441Z,25.94
2023-06-29T21:12:31.501Z,25.86
2023-06-29T21:14:58.821Z,25.85
2023-06-29T21:17:26.134Z,25.77
2023-06-29T21:19:53.282Z,25.73
2023-06-29T21:22:20.434Z,25.67
2023-06-29T21:24:48.345Z,25.62
2023-06-29T21:27:19.153Z,25.59
2023-06-29T21:29:47.485Z,25.51
2023-06-29T21:32:15.487Z,25.46
2023-06-29T21:34:42.616Z,25.41
2023-06-29T21:37:10.137Z,25.33
2023-06-29T21:39:37.018Z,25.30
2023-06-29T21:42:04.270Z,25.26
2023-06-29T21:44:31.066Z,25.22
2023-06-29T21:46:58.063Z,25.15
2023-06-29T21:49:24.983Z,25.10
2023-06-29T21:51:52.295Z,25.04
2023-06-29T21:54:19.164Z,24.98
2023-06-29T21:56:46.081Z,24.94
2023-06-29T21:59:12.868Z,24.90
2023-06-29T22:01:39.801Z,24.87
2023-06-29T22:04:06.845Z,24.82
2023-06-29T22:06:33.813Z,24.73
2023-06-29T22:09:04.044Z,24.69
2023-06-29T22:11:30.995Z,24.65
2023-06-29T22:13:57.842Z,24.59
2023-06-29T22:16:24.853Z,24.54
2023-06-29T22:18:52.231Z,24.50
2023-06-29T22:21:25.457Z,24.47
2023-06-29T22:23:53.927Z,24.45
2023-06-29T22:26:22.044Z,24.41
2023-06-29T22:28:49.306Z,24.36
2023-06-29T22:31:18.736Z,24.32
2023-06-29T22:33:46.524Z,24.26
2023-06-29T22:38:59.042Z,24.13
2023-06-29T22:41:25.898Z,24.07
2023-06-29T22:43:58.513Z,24.03
2023-06-29T22:46:26.450Z,23.96
2023-06-29T22:48:53.508Z,23.91
2023-06-29T22:51:25.500Z,23.85
2023-06-29T22:53:53.177Z,23.80
2023-06-29T22:56:23.476Z,23.75
2023-06-29T22:59:10.105Z,23.69
2023-06-29T23:01:37.805Z,23.64
2023-06-29T23:04:08.071Z,23.60
2023-06-29T23:06:41.888Z,23.54
2023-06-29T23:09:11.892Z,23.51
2023-06-29T23:11:39.341Z,23.44
2023-06-29T23:14:06.616Z,23.41
2023-06-29T23:16:33.690Z,23.36
2023-06-29T23:19:01.651Z,23.30
2023-06-29T23:21:28.879Z,23.27
2023-06-29T23:23:56.093Z,23.19
2023-06-29T23:26:24.101Z,23.16
2023-06-29T23:28:54.312Z,23.13
2023-06-29T23:31:21.977Z,23.09
2023-06-29T23:33:49.624Z,23.05
2023-06-29T23:36:22.411Z,23.00
2023-06-29T23:38:49.999Z,22.95
2023-06-29T23:41:18.319Z,22.91
2023-06-29T23:43:45.920Z,22.86
2023-06-29T23:46:13.440Z,22.82
2023-06-29T23:48:43.315Z,22.82
2023-06-29T23:51:10.328Z,22.80
2023-06-29T23:53:39.970Z,22.76
2023-06-29T23:56:06.900Z,22.75
2023-06-29T23:58:33.760Z,22.73
